Hlavní strana
METAR-TAF:

METAR-TAF

Letiště :

Casablanca-Mohammed V, Maroko

zeměpisná šířka: 33-22N, zeměpisná délka: 007-35W, výška: 200 m

Aktuální stav počasí

Zpráva byla vytvořena před 17 minutami, v 06:30 UTC
Západní vítr 4 kt
Teplota 18°C
Vlhkost vzduchu 94%
Tlak 1011 hPa
Viditelnost 10 km a více
Polojasno ve výšce 800 ft

METAR: GMMN 300630Z 26004KT 9999 SCT008 18/17 Q1011 NOSIG

Čas: 07:47 (06:47 UTC)

Předpověď počasí

Zpráva byla vytvořena před 1 hodinou a 47 minutami, v 05:00 UTC
Předpověď platná od 30 v 06 UTC do 31 v 12 UTC
Západojihozápadní vítr 2 kt
Viditelnost 10 km a více
Žádná oblačnost pod 1500 m, nevyskytují se cumulonimby.
Změna
od 30 v 07 UTC do 30 v 09 UTC
Západojihozápadní vítr 2 kt
Viditelnost 10 km a více
Polojasno ve výšce 1000 ft

TAF: GMMN 300500Z 3006/3112 24002KT CAVOK BECMG 3007/3009 24002KT 9999 SCT010

Stav a předpovědi počasí z více než 4 000 letišť (zprávy METAR a TAF).

Červené a žluté tečky na mapě představují dostupné meteorologické stanice.

Když kurzor umístíte na tečku, zobrazí se název stanice.

Pak kliknutím zobrazíte stav a předpověď počasí.

Chcete-li změnit mapu, kliknutím na zelené tlačítko se znaménkem +mapu přiblížíte, kliknutím na zelené tlačítko se znaménkem – mapu oddálíte a kliknutím na zelené šipky přejdete na sousední mapy.


METAR-TAF: